createdAt,value
2022-11-06T00:01:15.518Z,8.25
2022-11-06T00:03:43.655Z,7.40
2022-11-06T00:06:31.568Z,8.15
2022-11-06T00:09:04.382Z,7.97
2022-11-06T00:11:32.095Z,7.97
2022-11-06T00:14:01.067Z,7.68
2022-11-06T00:16:28.530Z,7.85
2022-11-06T00:18:55.948Z,7.43
2022-11-06T00:21:26.239Z,7.85
2022-11-06T00:23:54.862Z,7.13
2022-11-06T00:26:25.294Z,7.03
2022-11-06T00:28:53.671Z,6.88
2022-11-06T00:31:23.510Z,7.05
2022-11-06T00:33:51.643Z,6.63
2022-11-06T00:36:21.424Z,6.90
2022-11-06T00:38:53.162Z,7.20
2022-11-06T00:41:21.355Z,6.88
2022-11-06T00:43:55.024Z,7.13
2022-11-06T00:46:22.711Z,6.90
2022-11-06T00:48:50.224Z,7.22
2022-11-06T00:51:23.424Z,6.90
2022-11-06T00:53:57.242Z,6.63
2022-11-06T00:56:25.352Z,7.28
2022-11-06T00:58:53.582Z,7.53
2022-11-06T01:01:24.063Z,6.57
2022-11-06T01:04:00.480Z,6.55
2022-11-06T01:06:31.787Z,6.50
2022-11-06T01:08:59.539Z,6.55
2022-11-06T01:11:52.619Z,6.78
2022-11-06T01:14:22.121Z,6.55
2022-11-06T01:16:50.399Z,6.60
2022-11-06T01:19:19.902Z,6.97
2022-11-06T01:21:49.315Z,6.30
2022-11-06T01:24:23.354Z,6.60
2022-11-06T01:27:19.763Z,6.50
2022-11-06T01:29:38.711Z,6.28
2022-11-06T01:32:06.593Z,6.80
2022-11-06T01:34:34.342Z,6.28
2022-11-06T01:37:01.712Z,7.03
2022-11-06T01:39:29.117Z,6.53
2022-11-06T01:41:56.487Z,6.47
2022-11-06T01:44:35.970Z,6.20
2022-11-06T01:47:06.745Z,5.78
2022-11-06T01:49:38.197Z,6.55
2022-11-06T01:52:11.578Z,6.05
2022-11-06T01:54:41.701Z,6.20
2022-11-06T01:57:10.869Z,6.72
2022-11-06T01:59:41.900Z,6.25
2022-11-06T02:02:09.561Z,6.15
2022-11-06T02:04:40.845Z,6.28
2022-11-06T02:07:09.114Z,5.45
2022-11-06T02:09:36.963Z,5.97
2022-11-06T02:12:17.261Z,5.53
2022-11-06T02:14:59.761Z,6.10
2022-11-06T02:17:32.921Z,5.72
2022-11-06T02:20:27.709Z,6.22
2022-11-06T02:23:10.109Z,5.80
2022-11-06T02:25:49.639Z,5.35
2022-11-06T02:28:26.804Z,5.55
2022-11-06T02:30:58.307Z,5.10
2022-11-06T02:33:32.558Z,6.07
2022-11-06T02:36:07.437Z,4.97
2022-11-06T02:38:38.968Z,5.55
2022-11-06T02:41:12.599Z,4.70
2022-11-06T02:43:46.816Z,5.30
2022-11-06T02:46:20.482Z,5.60
2022-11-06T02:48:52.193Z,5.07
2022-11-06T02:51:25.495Z,5.47
2022-11-06T02:53:54.424Z,5.95
2022-11-06T02:56:26.321Z,5.20
2022-11-06T02:59:11.576Z,5.13
2022-11-06T03:01:56.480Z,5.28
2022-11-06T03:04:42.671Z,5.40
2022-11-06T03:07:29.263Z,4.80
2022-11-06T03:09:57.176Z,4.55
2022-11-06T03:12:40.115Z,5.00
2022-11-06T03:15:29.225Z,5.13
2022-11-06T03:18:17.650Z,4.88
2022-11-06T03:21:07.812Z,5.07
2022-11-06T03:23:48.563Z,5.00
2022-11-06T03:26:20.333Z,5.00
2022-11-06T03:28:52.575Z,5.68
2022-11-06T03:31:29.584Z,5.53
2022-11-06T03:34:03.857Z,5.68
2022-11-06T03:36:47.606Z,5.55
2022-11-06T03:39:21.251Z,5.47
2022-11-06T03:42:10.260Z,5.47
2022-11-06T03:44:43.042Z,5.25
2022-11-06T03:47:15.798Z,5.00
2022-11-06T03:49:49.641Z,5.35
2022-11-06T03:52:22.350Z,5.45
2022-11-06T03:55:01.597Z,5.35
2022-11-06T03:57:44.749Z,5.30
2022-11-06T04:00:12.921Z,5.00
2022-11-06T04:02:45.445Z,5.50
2022-11-06T04:05:38.320Z,5.20
2022-11-06T04:08:27.069Z,5.45
2022-11-06T04:11:16.675Z,5.68
2022-11-06T04:13:57.799Z,5.80
2022-11-06T04:16:27.516Z,5.65
2022-11-06T04:18:54.895Z,5.90
2022-11-06T04:21:26.864Z,5.75
2022-11-06T04:24:34.352Z,5.80
2022-11-06T04:27:28.767Z,5.80
2022-11-06T04:30:08.771Z,5.85
2022-11-06T04:32:41.878Z,5.75
2022-11-06T04:35:21.037Z,6.45
2022-11-06T04:37:54.398Z,6.05
2022-11-06T04:44:03.970Z,5.88
2022-11-06T04:46:36.986Z,6.25
2022-11-06T04:49:06.997Z,6.07
2022-11-06T04:51:38.262Z,6.38
2022-11-06T04:54:09.288Z,6.43
2022-11-06T04:56:41.483Z,6.25
2022-11-06T04:59:16.177Z,6.60
2022-11-06T05:01:44.488Z,6.15
2022-11-06T05:04:12.317Z,6.68
2022-11-06T05:06:39.751Z,8.65
2022-11-06T05:09:07.131Z,7.25
2022-11-06T05:11:34.486Z,7.10
2022-11-06T05:14:01.925Z,6.75
2022-11-06T05:16:29.269Z,7.45
2022-11-06T05:18:56.775Z,6.65
2022-11-06T05:21:42.716Z,6.43
2022-11-06T05:24:10.594Z,6.45
2022-11-06T05:26:38.119Z,6.40
2022-11-06T05:29:05.537Z,6.65
2022-11-06T05:31:33.127Z,6.95
2022-11-06T05:34:00.514Z,5.90
2022-11-06T05:36:27.866Z,6.88
2022-11-06T05:38:55.211Z,6.40
2022-11-06T05:41:22.607Z,6.93
2022-11-06T05:43:50.042Z,6.60
2022-11-06T05:46:46.446Z,7.03
2022-11-06T05:49:04.736Z,6.03
2022-11-06T05:51:32.160Z,6.43
2022-11-06T05:53:59.568Z,6.32
2022-11-06T05:56:26.916Z,6.10
2022-11-06T05:58:54.286Z,6.85
2022-11-06T06:01:21.778Z,6.43
2022-11-06T06:03:49.251Z,5.53
2022-11-06T06:06:16.899Z,5.07
2022-11-06T06:08:44.203Z,6.50
2022-11-06T06:11:11.571Z,5.85
2022-11-06T06:13:38.958Z,6.15
2022-11-06T06:16:07.130Z,6.07
2022-11-06T06:18:34.541Z,5.82
2022-11-06T06:21:02.008Z,6.57
2022-11-06T06:23:29.385Z,6.32
2022-11-06T06:25:57.771Z,6.10
2022-11-06T06:28:25.125Z,5.70
2022-11-06T06:30:54.832Z,5.45
2022-11-06T06:33:26.016Z,5.25
2022-11-06T06:35:53.347Z,5.80
2022-11-06T06:38:20.776Z,6.05
2022-11-06T06:40:48.165Z,6.00
2022-11-06T06:43:15.529Z,6.13
2022-11-06T06:45:43.188Z,5.85
2022-11-06T06:48:10.976Z,5.93
2022-11-06T06:50:38.647Z,5.82
2022-11-06T06:53:06.030Z,5.30
2022-11-06T06:55:33.437Z,5.70
2022-11-06T06:58:02.159Z,5.72
2022-11-06T07:00:30.100Z,5.40
2022-11-06T07:02:57.615Z,5.82
2022-11-06T07:05:25.355Z,5.80
2022-11-06T07:07:52.730Z,6.07
2022-11-06T07:10:20.146Z,6.72
2022-11-06T07:12:47.606Z,6.72
2022-11-06T07:15:15.369Z,5.13
2022-11-06T07:17:42.773Z,5.78
2022-11-06T07:20:10.903Z,4.85
2022-11-06T07:22:38.348Z,5.47
2022-11-06T07:25:06.741Z,5.43
2022-11-06T07:27:34.177Z,5.30
2022-11-06T07:30:01.788Z,5.82
2022-11-06T07:32:29.692Z,5.85
2022-11-06T07:34:57.415Z,5.43
2022-11-06T07:37:24.747Z,4.72
2022-11-06T07:39:52.180Z,5.10
2022-11-06T07:42:19.691Z,5.25
2022-11-06T07:44:47.136Z,5.60
2022-11-06T07:47:14.440Z,4.80
2022-11-06T07:49:44.528Z,4.80
2022-11-06T07:52:15.598Z,4.78
2022-11-06T07:54:42.942Z,4.63
2022-11-06T07:57:10.308Z,4.32
2022-11-06T07:59:37.621Z,4.95
2022-11-06T08:02:05.177Z,4.45
2022-11-06T08:04:32.645Z,4.57
2022-11-06T08:07:00.083Z,4.80
2022-11-06T08:09:27.540Z,4.78
2022-11-06T08:11:54.932Z,5.05
2022-11-06T08:14:22.420Z,4.93
2022-11-06T08:16:49.839Z,5.05
2022-11-06T08:19:17.307Z,4.28
2022-11-06T08:21:44.682Z,4.55
2022-11-06T08:24:13.677Z,5.18
2022-11-06T08:26:42.835Z,4.03
2022-11-06T08:29:10.208Z,4.10
2022-11-06T08:31:37.684Z,4.30
2022-11-06T08:34:05.424Z,4.47
2022-11-06T08:36:38.483Z,5.05
2022-11-06T08:39:06.030Z,4.18
2022-11-06T08:41:33.515Z,4.35
2022-11-06T08:44:00.914Z,4.38
2022-11-06T08:46:28.298Z,4.50
2022-11-06T08:48:55.750Z,3.67
2022-11-06T08:51:23.213Z,4.30
2022-11-06T08:53:50.973Z,4.35
2022-11-06T08:56:18.532Z,3.55
2022-11-06T08:58:46.762Z,3.72
2022-11-06T09:01:15.023Z,3.85
2022-11-06T09:03:42.434Z,3.75
2022-11-06T09:06:09.873Z,4.47
2022-11-06T09:08:37.227Z,4.32
2022-11-06T09:11:07.953Z,3.85
2022-11-06T09:13:35.313Z,3.38
2022-11-06T09:16:02.726Z,3.90
2022-11-06T09:18:30.228Z,3.38
2022-11-06T09:20:57.875Z,3.72
2022-11-06T09:23:25.630Z,3.58
2022-11-06T09:25:53.043Z,3.80
2022-11-06T09:28:20.388Z,3.38
2022-11-06T09:30:47.765Z,3.58
2022-11-06T09:33:15.559Z,3.83
2022-11-06T09:35:43.458Z,3.38
2022-11-06T09:38:12.838Z,3.33
2022-11-06T09:40:46.965Z,3.35
2022-11-06T09:44:08.974Z,3.08
2022-11-06T09:46:42.724Z,2.97
2022-11-06T09:49:37.686Z,3.17
2022-11-06T09:52:28.454Z,3.58
2022-11-06T09:55:00.133Z,3.30
2022-11-06T09:57:54.035Z,3.75
2022-11-06T10:00:22.032Z,3.60
2022-11-06T10:03:16.452Z,3.08
2022-11-06T10:05:46.823Z,2.92
2022-11-06T10:08:25.015Z,3.60
2022-11-06T10:10:52.348Z,2.97
2022-11-06T10:13:38.375Z,4.20
2022-11-06T10:16:17.515Z,3.85
2022-11-06T10:19:06.514Z,3.67
2022-11-06T10:21:51.884Z,3.33
2022-11-06T10:24:34.169Z,3.72
2022-11-06T10:27:11.557Z,3.35
2022-11-06T10:30:03.483Z,3.45
2022-11-06T10:33:03.357Z,3.75
2022-11-06T10:35:39.914Z,3.45
2022-11-06T10:38:15.135Z,3.83
2022-11-06T10:40:49.292Z,3.17
2022-11-06T10:43:36.408Z,3.92
2022-11-06T10:46:41.158Z,3.92
2022-11-06T10:49:45.610Z,3.63
2022-11-06T10:52:37.140Z,3.80
2022-11-06T10:55:34.924Z,3.85
2022-11-06T10:58:21.270Z,3.72
2022-11-06T11:00:50.479Z,3.90
2022-11-06T11:03:29.630Z,3.88
2022-11-06T11:05:56.990Z,4.30
2022-11-06T11:08:35.943Z,4.57
2022-11-06T11:11:15.999Z,4.55
2022-11-06T11:13:46.352Z,4.32
2022-11-06T11:16:18.527Z,4.47
2022-11-06T11:18:49.281Z,4.30
2022-11-06T11:21:19.347Z,4.25
2022-11-06T11:24:11.297Z,4.00
2022-11-06T11:26:44.051Z,5.50
2022-11-06T11:29:17.718Z,4.10
2022-11-06T11:31:50.031Z,3.97
2022-11-06T11:34:22.787Z,4.47
2022-11-06T11:37:03.662Z,4.38
2022-11-06T11:39:41.036Z,3.92
2022-11-06T11:42:24.704Z,4.70
2022-11-06T11:45:17.441Z,4.30
2022-11-06T11:47:48.041Z,3.85
2022-11-06T11:50:32.115Z,4.22
2022-11-06T11:53:18.998Z,4.20
2022-11-06T11:55:49.365Z,4.05
2022-11-06T11:58:26.732Z,4.85
2022-11-06T12:01:07.620Z,4.10
2022-11-06T12:03:42.544Z,4.60
2022-11-06T12:06:13.396Z,4.55
2022-11-06T12:08:50.305Z,4.70
2022-11-06T12:11:26.061Z,4.70
2022-11-06T12:14:27.337Z,5.05
2022-11-06T12:17:11.899Z,7.20
2022-11-06T12:19:42.066Z,6.78
2022-11-06T12:22:22.196Z,7.35
2022-11-06T12:24:54.736Z,6.22
2022-11-06T12:27:33.565Z,5.72
2022-11-06T12:30:07.874Z,8.63
2022-11-06T12:33:16.485Z,5.60
2022-11-06T12:35:52.717Z,4.75
2022-11-06T12:38:37.942Z,5.68
2022-11-06T12:41:28.328Z,5.80
2022-11-06T12:43:57.135Z,5.87
2022-11-06T12:46:59.804Z,6.32
2022-11-06T12:49:39.286Z,6.82
2022-11-06T12:52:24.455Z,5.88
2022-11-06T12:55:05.353Z,5.95
2022-11-06T12:57:50.760Z,5.82
2022-11-06T13:00:31.303Z,5.95
2022-11-06T13:03:16.924Z,6.22
2022-11-06T13:06:00.822Z,5.90
2022-11-06T13:08:46.964Z,6.60
2022-11-06T13:11:29.849Z,6.85
2022-11-06T13:14:02.983Z,6.07
2022-11-06T13:17:01.056Z,6.15
2022-11-06T13:19:38.707Z,5.60
2022-11-06T13:22:30.227Z,5.20
2022-11-06T13:25:12.518Z,6.50
2022-11-06T13:27:53.132Z,14.95
2022-11-06T13:30:23.211Z,8.20
2022-11-06T13:33:15.353Z,7.20
2022-11-06T13:35:45.040Z,9.23
2022-11-06T13:38:27.401Z,12.65
2022-11-06T13:41:05.438Z,17.85
2022-11-06T13:43:41.517Z,18.15
2022-11-06T13:46:20.609Z,15.82
2022-11-06T13:48:57.193Z,10.98
2022-11-06T13:51:59.855Z,9.43
2022-11-06T13:54:58.019Z,8.73
2022-11-06T13:57:54.297Z,10.82
2022-11-06T14:00:51.116Z,39.60
2022-11-06T14:03:51.286Z,9.88
2022-11-06T14:06:23.982Z,11.98
2022-11-06T14:08:54.849Z,11.80
2022-11-06T14:11:34.945Z,25.55
2022-11-06T14:14:14.264Z,11.07
2022-11-06T14:16:45.792Z,8.73
2022-11-06T14:19:23.598Z,8.75
2022-11-06T14:21:53.189Z,8.05
2022-11-06T14:24:30.756Z,8.25
2022-11-06T14:26:59.879Z,10.02
2022-11-06T14:29:27.402Z,8.02
2022-11-06T14:32:13.202Z,8.45
2022-11-06T14:34:42.879Z,7.97
2022-11-06T14:37:19.750Z,8.30
2022-11-06T14:39:56.613Z,11.20
2022-11-06T14:42:26.938Z,9.15
2022-11-06T14:45:22.327Z,7.95
2022-11-06T14:47:54.497Z,7.85
2022-11-06T14:50:40.036Z,10.75
2022-11-06T14:53:23.476Z,8.32
2022-11-06T14:56:06.393Z,9.80
2022-11-06T14:58:37.863Z,10.90
2022-11-06T15:01:10.926Z,8.00
2022-11-06T15:03:41.153Z,8.20
2022-11-06T15:06:28.467Z,12.03
2022-11-06T15:08:59.104Z,11.00
2022-11-06T15:11:35.082Z,14.80
2022-11-06T15:14:09.016Z,7.93
2022-11-06T15:16:49.764Z,8.30
2022-11-06T15:19:17.106Z,14.18
2022-11-06T15:22:07.063Z,8.40
2022-11-06T15:24:56.986Z,7.95
2022-11-06T15:27:30.597Z,8.35
2022-11-06T15:30:01.933Z,9.63
2022-11-06T15:32:35.534Z,10.20
2022-11-06T15:35:27.716Z,8.55
2022-11-06T15:38:03.511Z,8.15
2022-11-06T15:40:35.818Z,8.25
2022-11-06T15:43:22.233Z,8.18
2022-11-06T15:46:06.998Z,7.63
2022-11-06T15:48:35.135Z,7.78
2022-11-06T15:51:02.945Z,7.38
2022-11-06T15:53:30.963Z,7.75
2022-11-06T15:56:08.835Z,8.18
2022-11-06T15:58:37.964Z,8.30
2022-11-06T16:01:07.863Z,8.32
2022-11-06T16:03:49.555Z,8.23
2022-11-06T16:06:17.651Z,8.02
2022-11-06T16:08:45.661Z,8.38
2022-11-06T16:11:18.018Z,8.82
2022-11-06T16:13:46.777Z,9.07
2022-11-06T16:16:39.552Z,8.60
2022-11-06T16:19:20.230Z,8.68
2022-11-06T16:21:58.592Z,8.80
2022-11-06T16:24:29.416Z,9.45
2022-11-06T16:26:56.946Z,8.73
2022-11-06T16:29:28.032Z,8.65
2022-11-06T16:34:37.583Z,7.53
2022-11-06T16:39:52.632Z,8.90
2022-11-06T16:42:23.105Z,8.38
2022-11-06T16:45:10.885Z,8.55
2022-11-06T16:47:38.280Z,9.80
2022-11-06T16:50:44.018Z,10.38
2022-11-06T16:53:11.997Z,9.52
2022-11-06T16:55:41.637Z,9.82
2022-11-06T16:58:16.187Z,8.88
2022-11-06T17:00:43.863Z,9.60
2022-11-06T17:03:21.478Z,9.48
2022-11-06T17:05:54.860Z,10.05
2022-11-06T17:08:41.833Z,10.18
2022-11-06T17:11:21.919Z,9.85
2022-11-06T17:13:50.878Z,11.32
2022-11-06T17:16:20.758Z,11.38
2022-11-06T17:18:48.642Z,10.90
2022-11-06T17:21:22.350Z,11.07
2022-11-06T17:23:50.982Z,11.07
2022-11-06T17:26:24.317Z,10.98
2022-11-06T17:28:52.344Z,10.60
2022-11-06T17:31:21.369Z,10.07
2022-11-06T17:33:49.071Z,11.57
2022-11-06T17:36:25.470Z,10.93
2022-11-06T17:38:54.747Z,10.50
2022-11-06T17:41:32.613Z,10.88
2022-11-06T17:44:12.418Z,11.13
2022-11-06T17:46:45.510Z,10.70
2022-11-06T17:49:17.907Z,11.10
2022-11-06T17:52:00.565Z,10.48
2022-11-06T17:54:32.613Z,10.85
2022-11-06T17:57:02.332Z,11.43
2022-11-06T17:59:30.142Z,15.20
2022-11-06T18:01:57.932Z,11.93
2022-11-06T18:04:27.178Z,11.20
2022-11-06T18:06:55.111Z,10.32
2022-11-06T18:09:23.308Z,10.38
2022-11-06T18:11:52.660Z,11.23
2022-11-06T18:14:21.473Z,10.90
2022-11-06T18:16:49.259Z,10.73
2022-11-06T18:19:19.920Z,11.77
2022-11-06T18:21:47.760Z,10.95
2022-11-06T18:24:15.335Z,11.13
2022-11-06T18:26:42.763Z,11.35
2022-11-06T18:29:11.652Z,10.10
2022-11-06T18:31:39.727Z,10.82
2022-11-06T18:34:07.909Z,10.77
2022-11-06T18:36:36.875Z,11.38
2022-11-06T18:39:05.326Z,11.27
2022-11-06T18:41:34.690Z,11.13
2022-11-06T18:44:02.280Z,10.80
2022-11-06T18:46:30.383Z,12.73
2022-11-06T18:48:58.425Z,11.38
2022-11-06T18:51:35.634Z,10.80
2022-11-06T18:54:06.960Z,11.23
2022-11-06T18:56:39.040Z,10.90
2022-11-06T18:59:11.679Z,11.63
2022-11-06T19:01:39.191Z,11.55
2022-11-06T19:04:06.849Z,11.07
2022-11-06T19:06:34.435Z,11.38
2022-11-06T19:09:01.891Z,11.43
2022-11-06T19:11:29.210Z,12.35
2022-11-06T19:13:56.526Z,11.15
2022-11-06T19:16:23.952Z,12.75
2022-11-06T19:21:30.686Z,12.85
2022-11-06T19:24:03.917Z,12.63
2022-11-06T19:26:33.591Z,13.18
2022-11-06T19:29:01.402Z,13.35
2022-11-06T19:31:30.213Z,13.88
2022-11-06T19:33:59.083Z,13.82
2022-11-06T19:36:27.221Z,12.60
2022-11-06T19:38:54.927Z,13.32
2022-11-06T19:41:22.366Z,13.75
2022-11-06T19:43:49.730Z,13.43
2022-11-06T19:46:25.667Z,13.77
2022-11-06T19:48:55.996Z,12.95
2022-11-06T19:51:23.404Z,13.68
2022-11-06T19:53:54.431Z,14.20
2022-11-06T19:56:22.588Z,13.43
2022-11-06T19:58:50.866Z,13.13
2022-11-06T20:01:20.713Z,12.68
2022-11-06T20:03:48.317Z,12.70
2022-11-06T20:06:16.407Z,12.98
2022-11-06T20:08:47.354Z,12.30
2022-11-06T20:11:15.312Z,13.07
2022-11-06T20:13:44.945Z,13.73
2022-11-06T20:16:15.507Z,13.13
2022-11-06T20:18:44.127Z,15.35
2022-11-06T20:21:12.857Z,15.43
2022-11-06T20:23:40.346Z,13.90
2022-11-06T20:26:07.755Z,15.50
2022-11-06T20:28:35.700Z,17.13
2022-11-06T20:31:11.868Z,16.25
2022-11-06T20:33:40.049Z,14.38
2022-11-06T20:36:23.208Z,13.48
2022-11-06T20:38:55.083Z,15.85
2022-11-06T20:41:22.835Z,16.08
2022-11-06T20:43:51.309Z,16.85
2022-11-06T20:46:20.493Z,16.85
2022-11-06T20:48:48.409Z,17.00
2022-11-06T20:51:19.115Z,16.77
2022-11-06T20:53:47.248Z,16.33
2022-11-06T20:56:16.930Z,15.35
2022-11-06T20:58:45.304Z,16.15
2022-11-06T21:01:20.107Z,16.80
2022-11-06T21:03:50.016Z,16.88
2022-11-06T21:06:19.438Z,17.30
2022-11-06T21:08:47.184Z,16.63
2022-11-06T21:11:22.874Z,16.98
2022-11-06T21:13:52.216Z,16.63
2022-11-06T21:16:23.036Z,16.30
2022-11-06T21:18:51.126Z,17.00
2022-11-06T21:21:24.534Z,15.68
2022-11-06T21:23:53.130Z,16.63
2022-11-06T21:26:24.372Z,15.90
2022-11-06T21:28:52.202Z,16.70
2022-11-06T21:31:22.655Z,17.02
2022-11-06T21:33:52.251Z,17.98
2022-11-06T21:36:25.734Z,15.95
2022-11-06T21:38:53.977Z,18.08
2022-11-06T21:41:24.565Z,19.42
2022-11-06T21:43:51.967Z,19.50
2022-11-06T21:46:21.146Z,19.58
2022-11-06T21:48:50.196Z,16.40
2022-11-06T21:51:30.016Z,18.85
2022-11-06T21:54:16.458Z,20.30
2022-11-06T21:56:44.628Z,17.92
2022-11-06T21:59:14.825Z,17.27
2022-11-06T22:01:43.238Z,17.23
2022-11-06T22:04:11.510Z,16.65
2022-11-06T22:06:42.984Z,16.85
2022-11-06T22:09:13.163Z,17.17
2022-11-06T22:11:43.322Z,18.60
2022-11-06T22:14:14.531Z,18.23
2022-11-06T22:19:12.323Z,15.43
2022-11-06T22:21:40.928Z,17.80
2022-11-06T22:24:10.620Z,18.50
2022-11-06T22:26:38.307Z,16.67
2022-11-06T22:29:08.951Z,16.85
2022-11-06T22:31:36.511Z,17.88
2022-11-06T22:34:04.387Z,16.67
2022-11-06T22:36:31.945Z,17.05
2022-11-06T22:39:00.840Z,17.40
2022-11-06T22:41:28.282Z,16.98
2022-11-06T22:43:59.275Z,17.20
2022-11-06T22:48:54.677Z,17.27
2022-11-06T22:51:25.388Z,16.42
2022-11-06T22:53:53.039Z,16.83
2022-11-06T22:56:22.913Z,17.35
2022-11-06T22:59:04.120Z,15.23
2022-11-06T23:04:08.898Z,14.90
2022-11-06T23:06:36.333Z,15.97
2022-11-06T23:09:03.810Z,16.13
2022-11-06T23:11:31.830Z,15.25
2022-11-06T23:14:06.008Z,15.38
2022-11-06T23:16:54.464Z,15.27
2022-11-06T23:19:21.911Z,16.30
2022-11-06T23:21:49.338Z,16.20
2022-11-06T23:24:16.828Z,15.48
2022-11-06T23:26:44.753Z,15.90
2022-11-06T23:29:12.595Z,16.10
2022-11-06T23:31:41.328Z,14.52
2022-11-06T23:34:08.878Z,14.82
2022-11-06T23:36:36.272Z,14.48
2022-11-06T23:39:03.727Z,14.32
2022-11-06T23:41:43.052Z,14.07
2022-11-06T23:44:30.521Z,14.20
2022-11-06T23:46:58.450Z,15.00
2022-11-06T23:49:25.856Z,15.48
2022-11-06T23:51:53.708Z,14.65
2022-11-06T23:54:21.400Z,14.57
2022-11-06T23:56:48.823Z,15.65
2022-11-06T23:59:16.331Z,14.55
